< Typhoon 197618 1976 Season Typhoon 197620 >
Typhoon 197619 (HOPE)
General InformationTrack Information on Google Maps || Disaster Info.ResourceGoogle EarthGE AnimationAtom FeedGeoJSON
Detalied Best Track (Time Zone = UTC)
Year Month Day Hour Lat. Long. Pressure (hPa) Wind (kt) Class Image Chart
1976 9 13 12 18.0 152.0 1000 0 2 -- Chart
1976 9 13 18 18.3 153.4 998 0 2 -- Chart
1976 9 14 00 18.6 154.5 996 0 2 -- Chart
1976 9 14 06 19.2 154.7 992 0 9 -- Chart
1976 9 14 12 20.1 154.4 990 0 9 -- Chart
1976 9 14 18 21.0 154.0 985 0 9 -- Chart
1976 9 15 00 22.1 153.3 985 0 9 -- Chart
1976 9 15 06 23.2 153.0 980 0 9 -- Chart
1976 9 15 12 24.7 151.8 970 0 9 -- Chart
1976 9 15 18 26.0 150.4 970 0 9 -- Chart
1976 9 16 00 27.4 149.3 965 0 9 -- Chart
1976 9 16 06 28.9 148.5 965 0 9 -- Chart
1976 9 16 12 30.0 148.0 965 0 9 -- Chart
1976 9 16 18 31.5 148.0 970 0 9 -- Chart
1976 9 17 00 33.6 148.0 975 0 9 -- Chart
1976 9 17 06 35.8 149.0 975 0 9 -- Chart
1976 9 17 12 38.5 150.5 975 0 9 -- Chart
1976 9 17 18 41.3 151.8 975 0 9 -- Chart
1976 9 18 00 46.0 152.0 976 0 6 -- Chart
1976 9 18 06 47.0 153.0 974 0 6 -- Chart
1976 9 18 12 48.6 154.0 974 0 6 -- Chart
1976 9 18 18 49.8 155.0 976 0 6 -- Chart
1976 9 19 00 51.0 156.0 976 0 6 -- Chart
1976 9 19 06 51.5 158.2 980 0 6 -- Chart
1976 9 19 12 52.0 161.0 980 0 6 -- Chart
1976 9 19 18 52.1 165.0 988 0 6 -- Chart
1976 9 20 00 52.0 167.1 986 0 6 -- Chart
1976 9 20 06 51.0 171.0 986 0 6 -- Chart
1976 9 20 12 51.0 174.0 986 0 6 -- Chart
1976 9 20 18 50.7 178.0 986 0 6 -- Chart
1976 9 21 00 50.0 182.0 988 0 6 -- Chart
Japan Meteorological Agency Best Track Data | Correction Date : 1992-10-21
< Typhoon 197618 1976 Season Typhoon 197620 >

Help